Time;durP1;ratioP1;P1;durP2;ratioP2;P2;SDS_P1;SDS_P2;PMS_P1;PMS_P2;Temp;Humidity;BMP_temperature;BMP_pressure;BME280_temperature;BME280_humidity;BME280_pressure;Samples;Min_cycle;Max_cycle;Signal;HPM_P1;HPM_P2
2023/05/30 00:00:06;;;;;;;;;;;;;;;17.57;47.50;100430.81;5079300;28;1058;-55
2023/05/30 00:02:31;;;;;;;;;;;;;;;16.96;47.54;100427.44;5079220;28;1069;-55
2023/05/30 00:04:57;;;;;;;;;;;;;;;16.71;47.54;100431.13;5079585;28;1058;-55
2023/05/30 00:07:22;;;;;;;;;;;;;;;17.53;47.72;100436.09;5079399;28;1178;-56
2023/05/30 00:09:48;;;;;;;;;;;;;;;16.91;47.95;100435.69;5086813;28;1902;-56
2023/05/30 00:12:13;;;;;;;;;;;;;;;16.75;47.07;100444.00;5079177;28;1134;-57
2023/05/30 00:14:39;;;;;;;;;;;;;;;16.66;46.74;100447.63;5078893;28;1098;-57
2023/05/30 00:17:05;;;;;;;;;;;;;;;16.64;46.02;100447.91;5079297;28;1046;-57
2023/05/30 00:19:31;;;;;;;;;;;;;;;16.45;46.05;100447.69;5078842;28;1047;-56
2023/05/30 00:21:56;;;;;;;;;;;;;;;17.47;47.36;100448.22;5051325;28;928;-56
2023/05/30 00:24:25;;;;;;;;;;;;;;;16.84;47.88;100437.91;5077999;28;1159;-56
2023/05/30 00:26:51;;;;;;;;;;;;;;;18.00;48.34;100446.69;5078806;28;1045;-56
2023/05/30 00:29:16;;;;;;;;;;;;;;;17.51;49.43;100448.47;5078753;28;1909;-56
2023/05/30 00:31:42;;;;;;;;;;;;;;;17.11;48.54;100448.50;5078624;28;1142;-56
2023/05/30 00:34:07;;;;;;;;;;;;;;;16.75;48.06;100444.00;5086712;28;1129;-56
2023/05/30 00:36:33;;;;;;;;;;;;;;;16.78;47.14;100445.38;5079012;28;1097;-56
2023/05/30 00:38:58;;;;;;;;;;;;;;;16.71;46.61;100447.59;5060655;28;1291;-56
2023/05/30 00:41:25;;;;;;;;;;;;;;;16.69;46.23;100456.13;5078776;28;1154;-56
2023/05/30 00:43:50;;;;;;;;;;;;;;;17.76;48.29;100448.22;5065817;28;1078;-56
2023/05/30 00:46:16;;;;;;;;;;;;;;;17.05;48.54;100446.88;5063754;28;1246;-56
2023/05/30 00:48:41;;;;;;;;;;;;;;;16.83;47.65;100447.25;5060299;28;1910;-56
2023/05/30 00:51:08;;;;;;;;;;;;;;;17.35;48.81;100439.50;5060989;28;1051;-57
2023/05/30 00:53:34;;;;;;;;;;;;;;;16.95;48.34;100445.03;5044078;28;1095;-56
2023/05/30 00:55:59;;;;;;;;;;;;;;;16.83;47.33;100453.59;5060743;28;1129;-56
2023/05/30 00:58:25;;;;;;;;;;;;;;;18.11;48.10;100446.25;5065797;28;1075;-56
2023/05/30 01:00:51;;;;;;;;;;;;;;;17.27;48.79;100449.22;5070526;28;1117;-56
2023/05/30 01:03:16;;;;;;;;;;;;;;;17.04;47.88;100448.81;5059995;28;1091;-56
2023/05/30 01:05:43;;;;;;;;;;;;;;;16.91;47.09;100447.53;5059907;28;1043;-55
2023/05/30 01:08:10;;;;;;;;;;;;;;;16.75;46.60;100448.69;5078138;28;1914;-56
2023/05/30 01:10:36;;;;;;;;;;;;;;;17.44;47.61;100452.34;5052374;28;1099;-56
2023/05/30 01:13:02;;;;;;;;;;;;;;;17.03;47.75;100452.66;5058945;28;1254;-56
2023/05/30 01:15:32;;;;;;;;;;;;;;;16.82;47.55;100448.38;5059958;28;1238;-53
2023/05/30 01:18:05;;;;;;;;;;;;;;;17.52;47.93;100455.63;5053655;28;1086;-54
2023/05/30 01:20:37;;;;;;;;;;;;;;;17.12;48.49;100444.63;5071682;28;1055;-57
2023/05/30 01:23:15;;;;;;;;;;;;;;;16.90;47.59;100442.28;5077723;28;1221;-56
2023/05/30 01:25:46;;;;;;;;;;;;;;;17.42;48.09;100442.78;5077877;28;1074;-56
2023/05/30 01:28:15;;;;;;;;;;;;;;;17.21;48.57;100442.94;5059698;28;1981;-57
2023/05/30 01:30:51;;;;;;;;;;;;;;;16.84;47.93;100437.91;5064007;28;1215;-57
2023/05/30 01:33:17;;;;;;;;;;;;;;;16.75;47.23;100444.00;5077924;28;1173;-56
2023/05/30 01:35:44;;;;;;;;;;;;;;;16.74;46.37;100442.34;5077918;28;1114;-55
2023/05/30 01:38:10;;;;;;;;;;;;;;;18.07;47.96;100445.19;5077457;28;1035;-55
2023/05/30 01:40:35;;;;;;;;;;;;;;;17.18;49.06;100443.50;5059079;28;1488;-56
2023/05/30 01:43:04;;;;;;;;;;;;;;;17.02;47.93;100440.03;5077596;28;1162;-56
2023/05/30 01:45:32;;;;;;;;;;;;;;;17.68;48.64;100445.28;5064276;28;1078;-56
2023/05/30 01:47:58;;;;;;;;;;;;;;;17.14;48.60;100438.84;5066042;28;1281;-56
2023/05/30 01:50:26;;;;;;;;;;;;;;;17.00;47.90;100441.41;5058972;28;2005;-55
2023/05/30 01:52:52;;;;;;;;;;;;;;;16.82;47.05;100437.41;5042534;28;2020;-55
2023/05/30 01:55:18;;;;;;;;;;;;;;;16.73;46.69;100451.72;5059419;28;1134;-56
2023/05/30 01:57:45;;;;;;;;;;;;;;;16.69;46.74;100442.41;5065479;28;2305;-56
2023/05/30 02:00:12;;;;;;;;;;;;;;;17.22;48.05;100446.47;5046163;28;1247;-56
2023/05/30 02:02:38;;;;;;;;;;;;;;;16.85;47.74;100450.56;5076932;28;1011;-55
2023/05/30 02:05:04;;;;;;;;;;;;;;;16.95;47.78;100453.25;5076972;28;1107;-56
2023/05/30 02:07:29;;;;;;;;;;;;;;;17.19;48.15;100455.31;5059009;28;1155;-55
2023/05/30 02:09:55;;;;;;;;;;;;;;;16.91;47.66;100458.50;5076829;28;1963;-55
2023/05/30 02:12:20;;;;;;;;;;;;;;;17.27;47.98;100468.44;5076593;28;1035;-55
2023/05/30 02:14:47;;;;;;;;;;;;;;;17.24;48.51;100469.03;5076437;28;1030;-56
2023/05/30 02:17:13;;;;;;;;;;;;;;;17.01;47.66;100468.63;5058957;28;1143;-56
2023/05/30 02:19:39;;;;;;;;;;;;;;;16.84;47.28;100476.38;5083314;28;1017;-55
2023/05/30 02:22:06;;;;;;;;;;;;;;;17.47;48.34;100475.72;5081835;28;1127;-54
2023/05/30 02:24:31;;;;;;;;;;;;;;;16.96;48.27;100476.88;5076358;28;1150;-55
2023/05/30 02:26:57;;;;;;;;;;;;;;;16.82;47.65;100476.66;5076652;28;1138;-54
2023/05/30 02:29:22;;;;;;;;;;;;;;;16.69;46.89;100477.25;5076272;28;1898;-55
2023/05/30 02:31:48;;;;;;;;;;;;;;;17.61;47.72;100475.88;5076642;28;1182;-55
2023/05/30 02:34:13;;;;;;;;;;;;;;;17.23;48.81;100478.38;5078398;28;980;-55
2023/05/30 02:36:39;;;;;;;;;;;;;;;17.00;47.95;100480.69;5076306;28;1528;-55
2023/05/30 02:39:07;;;;;;;;;;;;;;;16.87;47.05;100481.28;5058846;28;1312;-55
2023/05/30 02:41:37;;;;;;;;;;;;;;;16.75;46.71;100479.69;5058183;28;1871;-54
2023/05/30 02:44:04;;;;;;;;;;;;;;;17.33;47.94;100485.72;5058128;28;1415;-55
2023/05/30 02:46:29;;;;;;;;;;;;;;;16.88;47.76;100481.03;5084100;28;1494;-55
2023/05/30 02:48:55;;;;;;;;;;;;;;;16.69;47.34;100483.56;5045519;28;1963;-55
2023/05/30 02:51:22;;;;;;;;;;;;;;;16.70;46.71;100490.69;5058033;28;1343;-54
2023/05/30 02:53:48;;;;;;;;;;;;;;;16.63;46.23;100483.88;5057901;28;1134;-55
2023/05/30 02:56:17;;;;;;;;;;;;;;;16.57;45.87;100486.63;5057096;28;1276;-56
2023/05/30 02:58:42;;;;;;;;;;;;;;;17.69;47.32;100493.69;5079403;28;876;-57
2023/05/30 03:01:27;;;;;;;;;;;;;;;16.95;47.92;100494.47;5058174;28;1229;-57
2023/05/30 03:03:53;;;;;;;;;;;;;;;16.74;47.34;100494.53;5057731;28;1116;-57
2023/05/30 03:06:38;;;;;;;;;;;;;;;17.19;47.52;100497.34;5058205;28;1373;-55
2023/05/30 03:09:24;;;;;;;;;;;;;;;17.17;48.81;100499.56;5057922;28;1913;-55
2023/05/30 03:11:50;;;;;;;;;;;;;;;16.82;48.03;100489.56;5068299;28;1180;-55
2023/05/30 03:14:16;;;;;;;;;;;;;;;16.83;47.32;100493.94;5058104;28;1339;-53
2023/05/30 03:16:42;;;;;;;;;;;;;;;17.93;48.17;100499.28;5052353;28;1241;-56
2023/05/30 03:19:09;;;;;;;;;;;;;;;17.24;48.44;100504.75;5050344;28;1353;-58
2023/05/30 03:21:36;;;;;;;;;;;;;;;16.99;47.51;100509.28;5076050;28;1150;-58
2023/05/30 03:24:02;;;;;;;;;;;;;;;16.83;47.09;100507.66;5065400;28;1170;-58
2023/05/30 03:26:31;;;;;;;;;;;;;;;16.73;46.67;100500.28;5057687;28;1140;-58
2023/05/30 03:28:57;;;;;;;;;;;;;;;16.69;46.27;100511.03;5057303;28;1913;-58
2023/05/30 03:31:29;;;;;;;;;;;;;;;17.53;47.56;100517.72;5075864;28;1097;-60
2023/05/30 03:33:55;;;;;;;;;;;;;;;17.16;48.20;100524.56;5059715;28;1193;-59
2023/05/30 03:36:21;;;;;;;;;;;;;;;17.09;48.50;100520.19;5066840;28;1149;-63
2023/05/30 03:38:47;;;;;;;;;;;;;;;17.97;48.73;100525.09;5057996;28;1234;-63
2023/05/30 03:41:13;;;;;;;;;;;;;;;17.28;48.91;100520.38;5057674;28;1111;-62
2023/05/30 03:43:39;;;;;;;;;;;;;;;17.04;47.95;100520.25;5053967;28;1106;-63
2023/05/30 03:46:04;;;;;;;;;;;;;;;16.93;47.29;100526.91;5040920;28;1407;-63
2023/05/30 03:48:30;;;;;;;;;;;;;;;16.80;46.93;100522.78;5037093;28;2047;-64
2023/05/30 03:50:55;;;;;;;;;;;;;;;16.75;46.29;100523.63;5040619;28;1262;-62
2023/05/30 03:53:21;;;;;;;;;;;;;;;16.66;46.25;100519.00;5057438;28;1146;-62
2023/05/30 03:55:47;;;;;;;;;;;;;;;17.57;47.90;100527.03;5063343;28;1347;-58
2023/05/30 03:58:12;;;;;;;;;;;;;;;16.96;48.19;100534.56;5066917;28;1150;-58
2023/05/30 04:00:38;;;;;;;;;;;;;;;16.84;47.45;100529.34;5074295;28;1058;-59
2023/05/30 04:03:04;;;;;;;;;;;;;;;17.72;48.05;100528.84;5084468;28;1115;-60
2023/05/30 04:05:29;;;;;;;;;;;;;;;17.08;48.48;100529.56;5075886;28;1050;-62
2023/05/30 04:07:55;;;;;;;;;;;;;;;16.87;47.54;100530.72;5059877;28;1245;-63
2023/05/30 04:10:20;;;;;;;;;;;;;;;16.77;46.91;100523.34;5090204;28;1979;-63
2023/05/30 04:12:46;;;;;;;;;;;;;;;17.43;48.32;100535.09;5090170;28;1220;-63
2023/05/30 04:15:11;;;;;;;;;;;;;;;16.92;48.47;100536.22;5078890;28;1020;-63
2023/05/30 04:17:37;;;;;;;;;;;;;;;16.75;47.66;100525.56;5061149;28;1133;-62
2023/05/30 04:20:08;;;;;;;;;;;;;;;16.80;46.68;100527.47;5076752;28;1189;-62
2023/05/30 04:22:35;;;;;;;;;;;;;;;17.72;47.77;100526.09;5080496;28;1565;-62
2023/05/30 04:25:01;;;;;;;;;;;;;;;17.10;48.55;100527.34;5045404;28;1082;-61
2023/05/30 04:27:27;;;;;;;;;;;;;;;16.97;47.70;100532.63;5077639;28;1018;-61
2023/05/30 04:29:53;;;;;;;;;;;;;;;16.78;47.20;100516.75;5056982;28;1949;-56
2023/05/30 04:32:20;;;;;;;;;;;;;;;17.73;47.96;100528.56;5065764;28;1234;-55
2023/05/30 04:34:46;;;;;;;;;;;;;;;17.24;48.59;100522.03;5063697;28;1284;-53
2023/05/30 04:37:17;;;;;;;;;;;;;;;16.92;48.07;100525.25;5078162;28;1242;-53
2023/05/30 04:39:44;;;;;;;;;;;;;;;16.85;47.63;100530.19;5077853;28;1105;-53
2023/05/30 04:42:10;;;;;;;;;;;;;;;16.81;47.41;100520.88;5078242;28;1300;-53
2023/05/30 04:44:39;;;;;;;;;;;;;;;17.42;48.64;100528.78;5067698;28;1114;-51
2023/05/30 04:47:10;;;;;;;;;;;;;;;17.02;48.17;100527.13;5078668;28;1311;-54
2023/05/30 04:49:41;;;;;;;;;;;;;;;16.91;47.32;100531.81;5058125;28;1930;-53
2023/05/30 04:52:07;;;;;;;;;;;;;;;16.69;47.21;100532.16;5072435;28;1150;-52
2023/05/30 04:54:33;;;;;;;;;;;;;;;16.77;46.44;100535.16;5053366;28;1547;-53
2023/05/30 04:56:58;;;;;;;;;;;;;;;16.58;46.29;100542.38;5070438;28;1114;-53
2023/05/30 04:59:24;;;;;;;;;;;;;;;17.98;45.88;100546.00;5073357;28;1138;-54
2023/05/30 05:01:52;;;;;;;;;;;;;;;17.45;47.32;100550.22;5068213;28;1161;-53
2023/05/30 05:04:17;;;;;;;;;;;;;;;17.17;48.46;100548.19;5082883;28;1027;-63
2023/05/30 05:06:43;;;;;;;;;;;;;;;16.99;49.09;100544.16;5098451;28;1129;-59
2023/05/30 05:09:10;;;;;;;;;;;;;;;16.86;49.80;100545.56;5088261;28;1901;-62
2023/05/30 05:11:36;;;;;;;;;;;;;;;16.75;50.31;100542.84;5082194;28;1068;-58
2023/05/30 05:14:01;;;;;;;;;;;;;;;16.73;50.55;100544.22;5079337;28;1109;-60
2023/05/30 05:16:27;;;;;;;;;;;;;;;16.60;51.00;100546.47;5082603;28;1103;-60
2023/05/30 05:18:52;;;;;;;;;;;;;;;16.54;51.10;100544.03;5090433;28;1121;-59
2023/05/30 05:21:18;;;;;;;;;;;;;;;16.47;51.58;100540.75;5082085;28;1084;-58
2023/05/30 05:23:43;;;;;;;;;;;;;;;16.38;51.98;100544.06;5087007;28;995;-61
2023/05/30 05:26:09;;;;;;;;;;;;;;;16.31;52.26;100545.44;5082478;28;1214;-54
2023/05/30 05:28:34;;;;;;;;;;;;;;;16.23;52.58;100546.84;5072589;28;1901;-59
2023/05/30 05:31:00;;;;;;;;;;;;;;;16.21;52.61;100552.56;5080614;28;1182;-61
2023/05/30 05:33:25;;;;;;;;;;;;;;;16.18;52.60;100549.59;5083601;28;1101;-58
2023/05/30 05:35:51;;;;;;;;;;;;;;;16.10;53.06;100555.63;5068930;28;1181;-54
2023/05/30 05:38:16;;;;;;;;;;;;;;;16.05;53.00;100549.03;5088084;28;1202;-58
2023/05/30 05:40:42;;;;;;;;;;;;;;;15.97;53.19;100560.56;5077246;28;1025;-57
2023/05/30 05:43:07;;;;;;;;;;;;;;;15.96;53.48;100547.94;5097393;28;1054;-57
2023/05/30 05:45:33;;;;;;;;;;;;;;;15.91;53.54;100550.69;5079165;28;1071;-56
2023/05/30 05:47:58;;;;;;;;;;;;;;;15.85;53.79;100546.31;5095994;28;1144;-57
2023/05/30 05:50:24;;;;;;;;;;;;;;;15.80;53.91;100549.06;5065980;28;1917;-56
2023/05/30 05:52:50;;;;;;;;;;;;;;;15.77;54.14;100549.56;5081058;28;1115;-59
2023/05/30 05:55:15;;;;;;;;;;;;;;;15.73;54.10;100554.78;5086435;28;1034;-61
2023/05/30 05:57:41;;;;;;;;;;;;;;;15.71;54.20;100554.22;5097085;28;1049;-59
2023/05/30 06:00:07;;;;;;;;;;;;;;;17.12;51.82;100550.97;5071178;28;1139;-60
2023/05/30 06:02:37;;;;;;;;;;;;;;;16.90;52.60;100543.91;5096695;28;1023;-58
2023/05/30 06:05:03;;;;;;;;;;;;;;;16.46;53.94;100552.84;5065573;28;1137;-51
2023/05/30 06:07:28;;;;;;;;;;;;;;;16.26;54.33;100546.28;5076025;28;1126;-53
2023/05/30 06:09:54;;;;;;;;;;;;;;;16.10;54.68;100553.69;5075960;28;1976;-52
2023/05/30 06:12:20;;;;;;;;;;;;;;;16.04;54.77;100550.13;5076744;28;1038;-55
2023/05/30 06:14:45;;;;;;;;;;;;;;;15.98;54.73;100550.44;5082851;28;1106;-53
2023/05/30 06:17:11;;;;;;;;;;;;;;;15.97;54.57;100555.06;5097019;28;1475;-53
2023/05/30 06:19:36;;;;;;;;;;;;;;;15.87;54.86;100555.09;5083322;28;1074;-53
2023/05/30 06:22:02;;;;;;;;;;;;;;;16.93;53.38;100559.84;5096534;28;1175;-53
2023/05/30 06:24:27;;;;;;;;;;;;;;;16.95;53.35;100552.13;5065790;28;1158;-53
2023/05/30 06:26:53;;;;;;;;;;;;;;;16.46;54.46;100561.06;5072268;28;1111;-54
2023/05/30 06:29:18;;;;;;;;;;;;;;;16.24;55.08;100562.19;5069676;28;1913;-56
2023/05/30 06:31:44;;;;;;;;;;;;;;;16.16;55.00;100566.31;5068368;28;1163;-52
2023/05/30 06:34:09;;;;;;;;;;;;;;;16.03;55.32;100564.97;5074293;28;1082;-57
2023/05/30 06:36:35;;;;;;;;;;;;;;;15.95;55.29;100562.78;5096571;28;918;-56
2023/05/30 06:39:01;;;;;;;;;;;;;;;15.91;55.40;100548.78;5090907;28;1018;-57
2023/05/30 06:41:26;;;;;;;;;;;;;;;15.89;55.25;100561.09;5089475;28;1182;-57
2023/05/30 06:43:52;;;;;;;;;;;;;;;15.82;55.18;100560.56;5091182;28;1019;-60
2023/05/30 06:46:17;;;;;;;;;;;;;;;16.36;55.00;100559.97;5062639;28;1217;-58
2023/05/30 06:48:43;;;;;;;;;;;;;;;17.50;52.78;100562.28;5071731;28;1915;-60
2023/05/30 06:51:08;;;;;;;;;;;;;;;16.67;54.66;100567.31;5096627;28;1002;-58
2023/05/30 06:53:35;;;;;;;;;;;;;;;16.33;55.43;100563.28;5072250;28;1268;-60
2023/05/30 06:56:00;;;;;;;;;;;;;;;16.20;55.65;100564.69;5058415;28;1123;-60
2023/05/30 06:58:26;;;;;;;;;;;;;;;16.12;55.46;100570.72;5090014;28;1182;-61
2023/05/30 07:00:51;;;;;;;;;;;;;;;16.05;55.57;100568.25;5078534;28;929;-56
2023/05/30 07:03:17;;;;;;;;;;;;;;;15.98;55.63;100567.69;5090857;28;1110;-58
2023/05/30 07:05:42;;;;;;;;;;;;;;;15.90;55.55;100576.47;5088302;28;1193;-57
2023/05/30 07:08:08;;;;;;;;;;;;;;;15.85;55.59;100570.97;5075933;28;1046;-57
2023/05/30 07:10:34;;;;;;;;;;;;;;;15.88;55.62;100571.25;5075405;28;1901;-61
2023/05/30 07:13:00;;;;;;;;;;;;;;;15.83;55.47;100570.44;5088973;28;1146;-56
2023/05/30 07:15:27;;;;;;;;;;;;;;;16.53;55.05;100572.56;5083825;28;1193;-59
2023/05/30 07:17:52;;;;;;;;;;;;;;;17.09;54.12;100572.38;5082449;28;1106;-59
2023/05/30 07:20:22;;;;;;;;;;;;;;;16.51;55.56;100580.25;5088349;28;1078;-58
2023/05/30 07:22:48;;;;;;;;;;;;;;;16.30;55.73;100569.31;5090725;28;1158;-57
2023/05/30 07:25:14;;;;;;;;;;;;;;;16.08;56.21;100578.66;5086312;28;1042;-59
2023/05/30 07:27:40;;;;;;;;;;;;;;;16.08;56.01;100573.16;5075496;28;1138;-61
2023/05/30 07:30:06;;;;;;;;;;;;;;;15.98;55.99;100577.84;5075300;28;1922;-59
2023/05/30 07:32:31;;;;;;;;;;;;;;;15.92;56.15;100577.00;5081448;28;1047;-59
2023/05/30 07:34:57;;;;;;;;;;;;;;;16.72;55.23;100583.78;5083359;28;1213;-60
2023/05/30 07:37:22;;;;;;;;;;;;;;;17.05;54.38;100585.03;5094836;28;1154;-59
2023/05/30 07:39:48;;;;;;;;;;;;;;;16.53;55.84;100583.56;5095905;28;1062;-58
2023/05/30 07:42:13;;;;;;;;;;;;;;;16.31;56.08;100581.94;5076213;28;1217;-60
2023/05/30 07:44:39;;;;;;;;;;;;;;;16.25;56.07;100583.03;5079106;28;1014;-63
2023/05/30 07:47:04;;;;;;;;;;;;;;;16.08;56.38;100589.63;5084180;28;1148;-57
2023/05/30 07:49:30;;;;;;;;;;;;;;;16.04;56.14;100591.28;5087041;28;1889;-57
2023/05/30 07:51:55;;;;;;;;;;;;;;;16.01;56.24;100589.09;5095332;28;1170;-53
2023/05/30 07:54:21;;;;;;;;;;;;;;;15.93;55.94;100580.59;5075833;28;1186;-53
2023/05/30 07:56:46;;;;;;;;;;;;;;;15.88;56.01;100587.72;5084639;28;1186;-54
2023/05/30 07:59:12;;;;;;;;;;;;;;;15.84;56.04;100588.53;5078884;28;1071;-54
2023/05/30 08:01:37;;;;;;;;;;;;;;;16.15;56.16;100588.53;5092328;28;881;-60
2023/05/30 08:04:03;;;;;;;;;;;;;;;17.37;54.48;100588.47;5080265;28;1190;-58
2023/05/30 08:06:29;;;;;;;;;;;;;;;16.62;56.17;100587.38;5076935;28;1257;-56
2023/05/30 08:08:54;;;;;;;;;;;;;;;16.35;56.55;100583.00;5077483;28;1905;-56
2023/05/30 08:11:20;;;;;;;;;;;;;;;16.23;56.53;100579.78;5099603;28;1114;-57
2023/05/30 08:13:47;;;;;;;;;;;;;;;16.14;56.63;100584.97;5094050;28;1019;-57
2023/05/30 08:16:13;;;;;;;;;;;;;;;16.08;56.56;100584.16;5078577;28;1038;-57
2023/05/30 08:18:38;;;;;;;;;;;;;;;15.99;56.54;100583.06;5092592;28;1181;-60
2023/05/30 08:21:04;;;;;;;;;;;;;;;15.93;56.49;100586.88;5078139;28;1066;-61
2023/05/30 08:23:29;;;;;;;;;;;;;;;15.93;56.46;100586.88;5078140;28;1035;-58
2023/05/30 08:25:55;;;;;;;;;;;;;;;15.83;56.31;100570.44;5070681;28;1037;-57
2023/05/30 08:28:21;;;;;;;;;;;;;;;15.82;56.25;100579.75;5069137;28;1906;-63
2023/05/30 08:30:50;;;;;;;;;;;;;;;16.43;56.41;100568.75;5058502;28;1296;-63
2023/05/30 08:33:18;;;;;;;;;;;;;;;17.28;54.95;100586.31;5082292;28;1205;-60
2023/05/30 08:35:45;;;;;;;;;;;;;;;16.62;56.63;100570.91;5076859;28;1102;-60
2023/05/30 08:38:10;;;;;;;;;;;;;;;16.40;56.74;100571.22;5082494;28;899;-60
2023/05/30 08:40:36;;;;;;;;;;;;;;;16.24;56.87;100581.38;5078110;28;1142;-59
2023/05/30 08:43:01;;;;;;;;;;;;;;;16.17;56.76;100578.94;5072168;28;1154;-60
2023/05/30 08:45:27;;;;;;;;;;;;;;;16.12;56.56;100580.84;5078772;28;1101;-60
2023/05/30 08:47:54;;;;;;;;;;;;;;;16.01;56.50;100578.13;5077898;28;1071;-60
2023/05/30 08:50:20;;;;;;;;;;;;;;;15.97;56.49;100582.50;5090186;28;1910;-60
2023/05/30 08:52:46;;;;;;;;;;;;;;;15.94;56.50;100582.25;5078293;28;1038;-60
2023/05/30 08:55:12;;;;;;;;;;;;;;;16.95;55.82;100579.59;5078758;28;1074;-60
2023/05/30 08:57:40;;;;;;;;;;;;;;;17.07;55.79;100591.09;5098896;28;1066;-60
2023/05/30 09:00:09;;;;;;;;;;;;;;;16.57;56.91;100590.13;5098452;28;1130;-60
2023/05/30 09:02:35;;;;;;;;;;;;;;;16.34;56.98;100584.13;5098258;28;1022;-60
2023/05/30 09:05:01;;;;;;;;;;;;;;;16.23;56.95;100580.56;5080264;28;1130;-60
2023/05/30 09:07:27;;;;;;;;;;;;;;;16.20;56.70;100597.59;5085325;28;1173;-60
2023/05/30 09:09:53;;;;;;;;;;;;;;;16.12;56.85;100589.06;5073744;28;1921;-60
2023/05/30 09:12:18;;;;;;;;;;;;;;;16.04;56.72;100591.28;5078048;28;1019;-60
2023/05/30 09:14:44;;;;;;;;;;;;;;;16.02;56.56;100589.91;5080070;28;1074;-60
2023/05/30 09:17:09;;;;;;;;;;;;;;;15.98;56.45;100595.13;5080389;28;1015;-60
2023/05/30 09:19:35;;;;;;;;;;;;;;;15.93;56.63;100589.63;5097919;28;1090;-62
2023/05/30 09:22:00;;;;;;;;;;;;;;;15.87;56.59;100588.00;5079636;28;1093;-58
2023/05/30 09:24:46;;;;;;;;;;;;;;;15.87;56.42;100593.47;5059877;28;1324;-62
2023/05/30 09:27:11;;;;;;;;;;;;;;;17.26;56.02;100595.94;5072801;28;1780;-65
2023/05/30 09:29:43;;;;;;;;;;;;;;;16.81;56.86;100589.53;5072010;28;1971;-58
2023/05/30 09:32:08;;;;;;;;;;;;;;;16.38;57.27;100593.47;5094124;28;1179;-60
2023/05/30 09:34:34;;;;;;;;;;;;;;;16.28;57.42;100600.88;5086527;28;1121;-63
2023/05/30 09:37:00;;;;;;;;;;;;;;;16.22;56.95;100600.06;5096227;28;1117;-62
2023/05/30 09:39:26;;;;;;;;;;;;;;;16.12;57.14;100594.56;5070767;28;1473;-60
2023/05/30 09:41:53;;;;;;;;;;;;;;;16.02;56.88;100600.88;5092378;28;1099;-59
2023/05/30 09:44:19;;;;;;;;;;;;;;;15.97;56.94;100588.00;5078937;28;1132;-58
2023/05/30 09:46:44;;;;;;;;;;;;;;;15.98;56.75;100586.09;5073284;28;1218;-61
2023/05/30 09:49:11;;;;;;;;;;;;;;;15.94;56.75;100583.06;5064376;28;1972;-60
2023/05/30 09:51:37;;;;;;;;;;;;;;;15.86;56.60;100586.34;5069466;28;1312;-60
2023/05/30 09:54:03;;;;;;;;;;;;;;;15.84;56.48;100594.03;5082167;28;1174;-60
2023/05/30 09:56:47;;;;;;;;;;;;;;;15.65;56.79;100575.31;5065830;28;1202;-57
2023/05/30 09:59:13;;;;;;;;;;;;;;;15.92;56.96;100582.50;5076057;28;1164;-55
2023/05/30 10:01:39;;;;;;;;;;;;;;;17.25;56.21;100592.38;5071324;28;1236;-60
2023/05/30 10:04:11;;;;;;;;;;;;;;;16.87;57.01;100593.88;5086959;28;1071;-58
2023/05/30 10:06:41;;;;;;;;;;;;;;;16.43;57.86;100579.72;5078185;28;1150;-61
2023/05/30 10:09:07;;;;;;;;;;;;;;;16.30;57.48;100580.31;5076483;28;1913;-59
2023/05/30 10:11:32;;;;;;;;;;;;;;;16.20;57.29;100588.53;5076151;28;1086;-58
2023/05/30 10:13:59;;;;;;;;;;;;;;;16.07;57.22;100585.25;5078609;28;1169;-60
2023/05/30 10:16:24;;;;;;;;;;;;;;;16.02;57.13;100579.78;5083029;28;1138;-60
2023/05/30 10:18:53;;;;;;;;;;;;;;;16.01;56.88;100578.13;5078975;28;1110;-58
2023/05/30 10:21:22;;;;;;;;;;;;;;;15.99;56.85;100574.00;5065741;28;1295;-62
2023/05/30 10:23:47;;;;;;;;;;;;;;;15.90;56.79;100574.53;5078917;28;1098;-61
2023/05/30 10:26:13;;;;;;;;;;;;;;;15.85;56.83;100569.06;5088888;28;1177;-62
2023/05/30 10:28:38;;;;;;;;;;;;;;;17.12;56.65;100567.44;5058084;28;1901;-61
2023/05/30 10:31:04;;;;;;;;;;;;;;;17.04;57.11;100569.69;5072745;28;1106;-56
2023/05/30 10:33:30;;;;;;;;;;;;;;;16.60;57.48;100562.94;5070788;28;1241;-56
2023/05/30 10:35:55;;;;;;;;;;;;;;;16.41;57.67;100561.88;5082815;28;1150;-58
2023/05/30 10:38:21;;;;;;;;;;;;;;;16.30;57.51;100552.88;5095607;28;910;-58
2023/05/30 10:40:46;;;;;;;;;;;;;;;16.25;57.50;100572.88;5096479;28;1034;-58
2023/05/30 10:43:30;;;;;;;;;;;;;;;16.23;57.53;100563.31;5075813;28;1189;-57
2023/05/30 10:46:06;;;;;;;;;;;;;;;16.73;57.74;100567.03;5082809;28;1173;-57
2023/05/30 10:48:32;;;;;;;;;;;;;;;17.38;56.73;100560.72;5062227;28;1898;-57
2023/05/30 10:51:01;;;;;;;;;;;;;;;16.82;58.09;100556.28;5095607;28;1053;-58
2023/05/30 10:53:27;;;;;;;;;;;;;;;16.56;57.76;100550.88;5095665;28;1049;-57
2023/05/30 10:55:53;;;;;;;;;;;;;;;16.45;57.75;100559.41;5073974;28;1014;-57
2023/05/30 10:58:50;;;;;;;;;;;;;;;16.38;57.48;100552.31;5088749;28;1002;-57
2023/05/30 11:01:28;;;;;;;;;;;;;;;16.32;57.47;100560.81;5065328;28;1343;-57
2023/05/30 11:04:03;;;;;;;;;;;;;;;17.68;56.60;100558.03;5095811;28;1057;-57
2023/05/30 11:06:33;;;;;;;;;;;;;;;16.94;57.88;100555.97;5095441;28;1046;-58
2023/05/30 11:09:19;;;;;;;;;;;;;;;16.71;57.80;100546.44;5052557;28;1979;-57
2023/05/30 11:11:45;;;;;;;;;;;;;;;16.52;57.62;100552.53;5080113;28;1629;-56
2023/05/30 11:14:11;;;;;;;;;;;;;;;16.50;57.36;100552.00;5091585;28;1014;-57
2023/05/30 11:16:47;;;;;;;;;;;;;;;16.36;57.36;100557.22;5056078;28;1351;-54
2023/05/30 11:19:13;;;;;;;;;;;;;;;16.24;57.50;100565.78;5060708;28;1284;-58
2023/05/30 11:21:57;;;;;;;;;;;;;;;16.19;57.24;100576.75;5082872;28;1043;-58
2023/05/30 11:24:23;;;;;;;;;;;;;;;16.17;56.90;100570.72;5102060;28;1010;-57
2023/05/30 11:26:52;;;;;;;;;;;;;;;17.33;57.35;100590.16;5102071;28;861;-55
2023/05/30 11:29:35;;;;;;;;;;;;;;;16.98;57.68;100573.53;5096388;28;1913;-58
2023/05/30 11:32:00;;;;;;;;;;;;;;;16.60;57.93;100579.41;5066897;28;1134;-59
2023/05/30 11:34:26;;;;;;;;;;;;;;;16.47;57.72;100579.19;5078803;28;1008;-57
2023/05/30 11:36:52;;;;;;;;;;;;;;;16.36;57.56;100576.44;5066593;28;1198;-55
2023/05/30 11:39:18;;;;;;;;;;;;;;;16.35;57.33;100576.72;5089375;28;875;-58
2023/05/30 11:41:44;;;;;;;;;;;;;;;16.22;57.19;100578.13;5097733;28;1077;-59
2023/05/30 11:44:09;;;;;;;;;;;;;;;16.25;57.64;100585.78;5082070;28;1133;-56
2023/05/30 11:46:35;;;;;;;;;;;;;;;17.59;57.20;100594.38;5077094;28;1227;-58
2023/05/30 11:49:07;;;;;;;;;;;;;;;17.09;57.87;100588.88;5074740;28;1974;-60
2023/05/30 11:51:32;;;;;;;;;;;;;;;16.72;58.13;100603.81;5089259;28;1067;-60
2023/05/30 11:53:58;;;;;;;;;;;;;;;16.54;58.12;100601.69;5102202;28;1086;-59
2023/05/30 11:56:29;;;;;;;;;;;;;;;16.45;57.68;100601.38;5101737;28;1086;-60
2023/05/30 11:58:55;;;;;;;;;;;;;;;16.30;57.65;100599.50;5084605;28;1160;-59
2023/05/30 12:01:21;;;;;;;;;;;;;;;16.26;57.50;100592.94;5102224;28;1011;-59
2023/05/30 12:03:47;;;;;;;;;;;;;;;16.64;58.21;100585.16;5101845;28;898;-59
2023/05/30 12:06:13;;;;;;;;;;;;;;;17.33;57.59;100585.47;5095834;28;1010;-58
2023/05/30 12:08:39;;;;;;;;;;;;;;;16.75;58.20;100584.03;5077061;28;1983;-58
2023/05/30 12:11:05;;;;;;;;;;;;;;;16.55;58.07;100578.59;5072140;28;1214;-58
2023/05/30 12:13:30;;;;;;;;;;;;;;;16.47;57.83;100570.94;5068774;28;1229;-57
2023/05/30 12:15:56;;;;;;;;;;;;;;;16.38;57.41;100585.22;5078705;28;941;-57
2023/05/30 12:18:21;;;;;;;;;;;;;;;16.25;57.30;100572.88;5043466;28;1246;-58
2023/05/30 12:20:47;;;;;;;;;;;;;;;16.19;57.40;100578.66;5061395;28;1218;-58
2023/05/30 12:23:13;;;;;;;;;;;;;;;16.14;57.10;100581.41;5061731;28;1245;-61
2023/05/30 12:25:39;;;;;;;;;;;;;;;17.32;58.06;100580.25;5061454;28;1206;-61
2023/05/30 12:28:05;;;;;;;;;;;;;;;17.21;58.01;100583.06;5057881;28;933;-57
2023/05/30 12:30:34;;;;;;;;;;;;;;;16.74;58.42;100589.81;5064813;28;1909;-60
2023/05/30 12:33:11;;;;;;;;;;;;;;;16.57;57.87;100595.63;5084202;28;1496;-59
2023/05/30 12:35:38;;;;;;;;;;;;;;;16.47;57.70;100598.41;5062356;28;1214;-62
2023/05/30 12:38:04;;;;;;;;;;;;;;;16.35;57.55;100601.41;5069016;28;1211;-60
2023/05/30 12:40:29;;;;;;;;;;;;;;;16.22;57.47;100608.28;5044586;28;1241;-60
2023/05/30 12:42:55;;;;;;;;;;;;;;;16.25;57.13;100605.81;5070992;28;1115;-61
2023/05/30 12:45:21;;;;;;;;;;;;;;;17.48;57.89;100598.31;5060738;28;1191;-61